createdAt,value
2023-01-19T00:04:21.582Z,86.15
2023-01-19T00:09:33.493Z,86.23
2023-01-19T00:14:40.560Z,86.24
2023-01-19T00:19:49.136Z,86.34
2023-01-19T00:24:56.820Z,86.26
2023-01-19T00:30:04.259Z,86.30
2023-01-19T00:35:13.531Z,86.25
2023-01-19T00:40:24.157Z,86.37
2023-01-19T00:45:32.574Z,86.30
2023-01-19T00:50:39.791Z,86.18
2023-01-19T00:55:47.291Z,86.12
2023-01-19T01:00:58.013Z,86.15
2023-01-19T01:06:08.292Z,86.11
2023-01-19T01:11:15.768Z,86.01
2023-01-19T01:16:23.251Z,85.45
2023-01-19T01:21:30.182Z,85.11
2023-01-19T01:26:37.851Z,85.05
2023-01-19T01:31:44.783Z,84.90
2023-01-19T01:36:51.791Z,84.97
2023-01-19T01:41:58.633Z,84.96
2023-01-19T01:47:06.018Z,84.83
2023-01-19T01:52:15.138Z,84.85
2023-01-19T01:57:23.201Z,84.98
2023-01-19T02:02:52.239Z,84.88
2023-01-19T02:08:26.412Z,85.02
2023-01-19T02:13:45.645Z,84.94
2023-01-19T02:18:53.227Z,84.96
2023-01-19T02:24:03.218Z,85.05
2023-01-19T02:29:13.180Z,84.90
2023-01-19T02:34:22.769Z,84.81
2023-01-19T02:39:34.285Z,84.86
2023-01-19T02:44:44.954Z,84.83
2023-01-19T02:49:59.160Z,84.62
2023-01-19T02:55:15.373Z,84.45
2023-01-19T03:00:33.779Z,84.57
2023-01-19T03:05:54.911Z,84.46
2023-01-19T03:11:05.631Z,84.42
2023-01-19T03:16:21.836Z,84.37
2023-01-19T03:21:31.856Z,84.48
2023-01-19T03:26:43.161Z,84.54
2023-01-19T03:31:53.259Z,84.65
2023-01-19T03:37:04.752Z,84.84
2023-01-19T03:42:14.910Z,84.91
2023-01-19T03:47:22.745Z,85.08
2023-01-19T03:52:34.307Z,85.14
2023-01-19T03:57:41.298Z,85.19
2023-01-19T04:02:48.352Z,85.19
2023-01-19T04:07:55.526Z,85.23
2023-01-19T04:13:03.792Z,85.55
2023-01-19T04:18:11.013Z,86.00
2023-01-19T04:23:18.087Z,86.30
2023-01-19T04:28:25.060Z,86.58
2023-01-19T04:33:32.181Z,86.95
2023-01-19T04:38:39.494Z,87.05
2023-01-19T04:43:47.801Z,86.91
2023-01-19T04:48:54.673Z,86.85
2023-01-19T04:54:01.733Z,86.87
2023-01-19T04:59:08.729Z,86.92
2023-01-19T05:04:15.700Z,86.84
2023-01-19T05:09:22.842Z,87.08
2023-01-19T05:14:29.838Z,87.28
2023-01-19T05:19:36.903Z,87.56
2023-01-19T05:24:44.185Z,87.60
2023-01-19T05:29:51.188Z,87.62
2023-01-19T05:34:58.160Z,87.56
2023-01-19T05:40:05.633Z,87.56
2023-01-19T05:45:13.537Z,87.88
2023-01-19T05:50:20.838Z,87.96
2023-01-19T05:55:32.621Z,88.02
2023-01-19T06:00:39.789Z,87.80
2023-01-19T06:05:46.815Z,88.00
2023-01-19T06:10:53.891Z,87.82
2023-01-19T06:16:04.972Z,87.63
2023-01-19T06:21:14.333Z,87.87
2023-01-19T06:26:21.407Z,87.76
2023-01-19T06:31:28.422Z,87.92
2023-01-19T06:36:36.179Z,88.00
2023-01-19T06:41:43.734Z,87.95
2023-01-19T06:46:50.752Z,87.81
2023-01-19T06:51:57.737Z,87.81
2023-01-19T06:57:04.727Z,87.62
2023-01-19T07:02:27.225Z,87.61
2023-01-19T07:07:35.879Z,87.42
2023-01-19T07:12:44.227Z,87.52
2023-01-19T07:17:51.449Z,87.48
2023-01-19T07:22:59.997Z,87.40
2023-01-19T07:28:07.330Z,87.34
2023-01-19T07:33:14.342Z,87.24
2023-01-19T07:38:22.330Z,87.18
2023-01-19T07:43:29.268Z,87.12
2023-01-19T07:48:36.329Z,86.90
2023-01-19T07:53:45.223Z,86.76
2023-01-19T07:58:52.610Z,86.75
2023-01-19T08:03:59.755Z,86.83
2023-01-19T08:09:07.185Z,86.75
2023-01-19T08:14:14.297Z,86.72
2023-01-19T08:19:21.444Z,86.65
2023-01-19T08:24:29.285Z,86.44
2023-01-19T08:29:37.049Z,86.32
2023-01-19T08:34:44.191Z,86.24
2023-01-19T08:39:53.688Z,86.20
2023-01-19T08:45:00.761Z,86.08
2023-01-19T08:50:09.083Z,85.64
2023-01-19T08:55:16.161Z,85.18
2023-01-19T09:00:25.195Z,84.81
2023-01-19T09:05:35.636Z,84.35
2023-01-19T09:10:48.040Z,83.75
2023-01-19T09:15:53.864Z,83.89
2023-01-19T09:21:01.129Z,84.00
2023-01-19T09:26:08.648Z,83.65
2023-01-19T09:31:16.445Z,83.55
2023-01-19T09:36:23.701Z,83.53
2023-01-19T09:41:34.678Z,83.51
2023-01-19T09:46:43.227Z,83.35
2023-01-19T09:51:53.076Z,83.28
2023-01-19T09:57:00.483Z,83.23
2023-01-19T10:02:23.688Z,83.25
2023-01-19T10:07:44.053Z,82.72
2023-01-19T10:13:01.880Z,82.38
2023-01-19T10:18:18.602Z,82.24
2023-01-19T10:23:36.223Z,82.26
2023-01-19T10:28:44.410Z,82.18
2023-01-19T10:34:03.021Z,81.79
2023-01-19T10:39:12.849Z,81.28
2023-01-19T10:44:27.048Z,81.02
2023-01-19T10:49:40.497Z,79.75
2023-01-19T10:54:48.564Z,78.72
2023-01-19T10:59:55.684Z,78.63
2023-01-19T11:05:23.576Z,78.26
2023-01-19T11:10:31.457Z,78.16
2023-01-19T11:15:45.138Z,77.66
2023-01-19T11:20:55.349Z,77.21
2023-01-19T11:26:06.805Z,77.56
2023-01-19T11:31:34.404Z,76.75
2023-01-19T11:36:41.444Z,77.24
2023-01-19T11:41:53.453Z,77.60
2023-01-19T11:47:03.325Z,77.37
2023-01-19T11:52:25.300Z,77.53
2023-01-19T11:57:32.573Z,77.35
2023-01-19T12:02:47.381Z,77.65
2023-01-19T12:07:54.956Z,77.76
2023-01-19T12:13:02.234Z,77.16
2023-01-19T12:18:14.079Z,77.07
2023-01-19T12:23:31.192Z,76.13
2023-01-19T12:28:42.498Z,74.00
2023-01-19T12:33:50.117Z,72.53
2023-01-19T12:38:59.266Z,70.82
2023-01-19T12:44:23.265Z,70.52
2023-01-19T12:49:34.446Z,71.39
2023-01-19T12:54:44.945Z,71.38
2023-01-19T12:59:59.534Z,71.04
2023-01-19T13:05:58.053Z,70.70
2023-01-19T13:11:27.268Z,69.56
2023-01-19T13:17:01.032Z,69.99
2023-01-19T13:22:34.983Z,71.51
2023-01-19T13:27:43.320Z,70.89
2023-01-19T13:32:50.699Z,69.62
2023-01-19T13:37:59.464Z,70.31
2023-01-19T13:43:17.717Z,70.71
2023-01-19T13:48:26.777Z,70.35
2023-01-19T13:53:34.401Z,70.72
2023-01-19T13:58:41.418Z,70.00
2023-01-19T14:03:55.019Z,70.35
2023-01-19T14:09:17.941Z,70.26
2023-01-19T14:14:29.583Z,70.73
2023-01-19T14:25:27.279Z,69.88
2023-01-19T14:30:36.845Z,70.37
2023-01-19T14:35:43.957Z,69.96
2023-01-19T14:40:51.022Z,70.30
2023-01-19T14:45:59.307Z,70.89
2023-01-19T14:51:07.423Z,70.97
2023-01-19T14:56:25.481Z,71.31
2023-01-19T15:01:36.592Z,71.52
2023-01-19T15:06:45.962Z,71.97
2023-01-19T15:11:54.322Z,72.47
2023-01-19T15:17:01.537Z,72.65
2023-01-19T15:22:14.939Z,72.93
2023-01-19T15:27:23.392Z,73.25
2023-01-19T15:32:30.462Z,73.49
2023-01-19T15:37:37.340Z,73.79
2023-01-19T15:42:44.552Z,74.18
2023-01-19T15:47:51.453Z,74.43
2023-01-19T15:52:58.495Z,74.54
2023-01-19T15:58:05.701Z,75.28
2023-01-19T16:03:13.134Z,75.41
2023-01-19T16:08:21.315Z,75.47
2023-01-19T16:13:30.087Z,75.77
2023-01-19T16:18:37.549Z,76.17
2023-01-19T16:23:44.576Z,76.42
2023-01-19T16:28:51.632Z,76.52
2023-01-19T16:33:59.151Z,77.08
2023-01-19T16:39:08.692Z,77.52
2023-01-19T16:44:18.286Z,77.70
2023-01-19T16:49:28.559Z,77.63
2023-01-19T16:54:38.506Z,77.97
2023-01-19T16:59:48.114Z,78.09
2023-01-19T17:04:55.708Z,78.21
2023-01-19T17:10:03.770Z,78.47
2023-01-19T17:15:13.449Z,78.69
2023-01-19T17:20:22.846Z,79.11
2023-01-19T17:25:32.742Z,79.34
2023-01-19T17:30:44.023Z,79.47
2023-01-19T17:35:52.960Z,79.12
2023-01-19T17:41:01.032Z,79.21
2023-01-19T17:46:10.321Z,79.24
2023-01-19T17:51:19.884Z,79.32
2023-01-19T17:56:30.121Z,79.56
2023-01-19T18:01:40.500Z,79.79
2023-01-19T18:06:49.660Z,79.85
2023-01-19T18:11:57.279Z,79.99
2023-01-19T18:17:05.589Z,80.16
2023-01-19T18:22:12.744Z,80.31
2023-01-19T18:27:22.063Z,80.35
2023-01-19T18:32:32.449Z,80.82
2023-01-19T18:37:40.983Z,81.11
2023-01-19T18:42:51.644Z,81.42
2023-01-19T18:48:11.774Z,81.35
2023-01-19T18:59:14.177Z,81.43
2023-01-19T19:04:24.386Z,81.54
2023-01-19T19:09:34.801Z,81.56
2023-01-19T19:14:42.868Z,81.34
2023-01-19T19:19:50.009Z,81.23
2023-01-19T19:25:02.157Z,81.25
2023-01-19T19:30:26.178Z,81.37
2023-01-19T19:40:57.729Z,81.37
2023-01-19T19:46:18.646Z,81.27
2023-01-19T19:51:37.660Z,81.79
2023-01-19T19:56:46.220Z,81.60
2023-01-19T20:02:05.977Z,81.93
2023-01-19T20:07:18.638Z,82.59
2023-01-19T20:12:39.895Z,83.02
2023-01-19T20:17:53.602Z,83.10
2023-01-19T20:23:24.193Z,82.72
2023-01-19T20:28:41.126Z,82.25
2023-01-19T20:34:00.410Z,82.21
2023-01-19T20:39:10.490Z,82.11
2023-01-19T20:44:22.370Z,82.24
2023-01-19T20:49:45.529Z,82.54
2023-01-19T20:54:53.955Z,82.82
2023-01-19T21:00:19.138Z,82.76
2023-01-19T21:05:38.069Z,82.67
2023-01-19T21:10:51.291Z,82.52
2023-01-19T21:16:07.649Z,82.55
2023-01-19T21:21:31.112Z,82.67
2023-01-19T21:26:56.482Z,82.87
2023-01-19T21:32:07.383Z,82.95
2023-01-19T21:37:16.133Z,82.99
2023-01-19T21:42:38.864Z,82.96
2023-01-19T21:47:51.828Z,83.01
2023-01-19T21:53:01.274Z,83.12
2023-01-19T21:58:10.359Z,83.04
2023-01-19T22:03:25.707Z,83.12
2023-01-19T22:08:41.073Z,83.04
2023-01-19T22:13:52.275Z,82.98
2023-01-19T22:19:05.013Z,83.12
2023-01-19T22:24:18.787Z,83.39
2023-01-19T22:29:37.810Z,83.38
2023-01-19T22:34:49.289Z,83.39
2023-01-19T22:39:59.307Z,83.67
2023-01-19T22:45:07.039Z,83.45
2023-01-19T22:50:14.703Z,83.58
2023-01-19T22:55:21.653Z,83.48
2023-01-19T23:00:28.807Z,83.49
2023-01-19T23:05:39.398Z,83.76
2023-01-19T23:10:46.606Z,83.83
2023-01-19T23:15:53.695Z,83.82
2023-01-19T23:21:05.474Z,83.71
2023-01-19T23:26:14.713Z,83.60
2023-01-19T23:31:23.671Z,83.60
2023-01-19T23:36:33.165Z,83.59
2023-01-19T23:41:40.273Z,83.56
2023-01-19T23:46:48.165Z,83.58
2023-01-19T23:51:55.403Z,83.58
2023-01-19T23:57:02.368Z,83.62
